sensor_id;sensor_type;location;lat;lon;timestamp;temperature;humidity
76168;DHT22;64927;48.214;16.378;2023-12-20T00:01:01;5.00;68.60
76168;DHT22;64927;48.214;16.378;2023-12-20T00:03:26;4.90;68.80
76168;DHT22;64927;48.214;16.378;2023-12-20T00:05:52;4.80;69.30
76168;DHT22;64927;48.214;16.378;2023-12-20T00:08:18;4.90;69.40
76168;DHT22;64927;48.214;16.378;2023-12-20T00:10:44;5.00;68.90
76168;DHT22;64927;48.214;16.378;2023-12-20T00:13:10;5.00;69.00
76168;DHT22;64927;48.214;16.378;2023-12-20T00:15:38;4.80;69.60
76168;DHT22;64927;48.214;16.378;2023-12-20T00:18:04;4.80;69.70
76168;DHT22;64927;48.214;16.378;2023-12-20T00:20:32;4.70;70.20
76168;DHT22;64927;48.214;16.378;2023-12-20T00:22:58;4.70;70.00
76168;DHT22;64927;48.214;16.378;2023-12-20T00:25:26;4.80;69.80
76168;DHT22;64927;48.214;16.378;2023-12-20T00:27:52;4.90;69.40
76168;DHT22;64927;48.214;16.378;2023-12-20T00:30:18;4.80;68.60
76168;DHT22;64927;48.214;16.378;2023-12-20T00:32:43;4.50;68.50
76168;DHT22;64927;48.214;16.378;2023-12-20T00:35:14;4.30;69.30
76168;DHT22;64927;48.214;16.378;2023-12-20T00:37:43;4.20;69.70
76168;DHT22;64927;48.214;16.378;2023-12-20T00:40:09;4.00;70.10
76168;DHT22;64927;48.214;16.378;2023-12-20T00:42:35;3.80;70.30
76168;DHT22;64927;48.214;16.378;2023-12-20T00:45:04;3.80;71.00
76168;DHT22;64927;48.214;16.378;2023-12-20T00:47:30;3.60;71.20
76168;DHT22;64927;48.214;16.378;2023-12-20T00:50:00;3.60;71.40
76168;DHT22;64927;48.214;16.378;2023-12-20T00:52:25;3.60;71.00
76168;DHT22;64927;48.214;16.378;2023-12-20T00:54:51;3.60;71.30
76168;DHT22;64927;48.214;16.378;2023-12-20T00:57:20;3.50;71.90
76168;DHT22;64927;48.214;16.378;2023-12-20T00:59:45;3.50;72.10
76168;DHT22;64927;48.214;16.378;2023-12-20T01:02:13;3.30;73.10
76168;DHT22;64927;48.214;16.378;2023-12-20T01:04:39;3.10;74.20
76168;DHT22;64927;48.214;16.378;2023-12-20T01:07:04;2.90;75.00
76168;DHT22;64927;48.214;16.378;2023-12-20T01:09:30;2.90;75.60
76168;DHT22;64927;48.214;16.378;2023-12-20T01:12:00;3.00;75.50
76168;DHT22;64927;48.214;16.378;2023-12-20T01:14:26;3.00;75.70
76168;DHT22;64927;48.214;16.378;2023-12-20T01:16:54;2.90;75.60
76168;DHT22;64927;48.214;16.378;2023-12-20T01:19:20;3.10;75.80
76168;DHT22;64927;48.214;16.378;2023-12-20T01:21:45;3.10;74.20
76168;DHT22;64927;48.214;16.378;2023-12-20T01:24:11;3.00;73.70
76168;DHT22;64927;48.214;16.378;2023-12-20T01:26:39;3.00;73.50
76168;DHT22;64927;48.214;16.378;2023-12-20T01:29:05;2.90;73.30
76168;DHT22;64927;48.214;16.378;2023-12-20T01:31:32;2.80;73.40
76168;DHT22;64927;48.214;16.378;2023-12-20T01:34:00;2.80;73.40
76168;DHT22;64927;48.214;16.378;2023-12-20T01:36:26;2.60;73.70
76168;DHT22;64927;48.214;16.378;2023-12-20T01:38:52;2.50;74.30
76168;DHT22;64927;48.214;16.378;2023-12-20T01:41:22;2.60;73.90
76168;DHT22;64927;48.214;16.378;2023-12-20T01:43:48;2.60;73.50
76168;DHT22;64927;48.214;16.378;2023-12-20T01:46:16;2.40;73.20
76168;DHT22;64927;48.214;16.378;2023-12-20T01:48:42;2.40;73.80
76168;DHT22;64927;48.214;16.378;2023-12-20T01:51:08;2.30;73.60
76168;DHT22;64927;48.214;16.378;2023-12-20T01:53:34;2.30;73.90
76168;DHT22;64927;48.214;16.378;2023-12-20T01:56:02;2.30;73.40
76168;DHT22;64927;48.214;16.378;2023-12-20T01:58:28;2.30;73.40
76168;DHT22;64927;48.214;16.378;2023-12-20T02:00:54;2.40;73.30
76168;DHT22;64927;48.214;16.378;2023-12-20T02:03:22;2.40;73.00
76168;DHT22;64927;48.214;16.378;2023-12-20T02:05:48;2.40;73.10
76168;DHT22;64927;48.214;16.378;2023-12-20T02:08:16;2.50;74.10
76168;DHT22;64927;48.214;16.378;2023-12-20T02:10:42;2.70;73.20
76168;DHT22;64927;48.214;16.378;2023-12-20T02:13:08;2.80;72.60
76168;DHT22;64927;48.214;16.378;2023-12-20T02:15:34;2.90;72.40
76168;DHT22;64927;48.214;16.378;2023-12-20T02:18:02;2.90;71.70
76168;DHT22;64927;48.214;16.378;2023-12-20T02:20:28;2.90;71.50
76168;DHT22;64927;48.214;16.378;2023-12-20T02:22:53;2.80;71.80
76168;DHT22;64927;48.214;16.378;2023-12-20T02:25:19;2.80;71.70
76168;DHT22;64927;48.214;16.378;2023-12-20T02:27:44;2.80;72.00
76168;DHT22;64927;48.214;16.378;2023-12-20T02:30:14;2.70;72.00
76168;DHT22;64927;48.214;16.378;2023-12-20T02:32:40;2.70;72.30
76168;DHT22;64927;48.214;16.378;2023-12-20T02:35:06;2.80;72.40
76168;DHT22;64927;48.214;16.378;2023-12-20T02:37:34;2.90;72.30
76168;DHT22;64927;48.214;16.378;2023-12-20T02:39:59;2.90;72.00
76168;DHT22;64927;48.214;16.378;2023-12-20T02:42:27;2.90;72.10
76168;DHT22;64927;48.214;16.378;2023-12-20T02:44:55;3.00;72.20
76168;DHT22;64927;48.214;16.378;2023-12-20T02:47:23;3.10;72.10
76168;DHT22;64927;48.214;16.378;2023-12-20T02:49:49;3.20;71.80
76168;DHT22;64927;48.214;16.378;2023-12-20T02:52:15;3.30;71.40
76168;DHT22;64927;48.214;16.378;2023-12-20T02:54:43;3.50;71.30
76168;DHT22;64927;48.214;16.378;2023-12-20T02:57:08;3.50;70.70
76168;DHT22;64927;48.214;16.378;2023-12-20T02:59:36;3.60;70.60
76168;DHT22;64927;48.214;16.378;2023-12-20T03:02:04;3.80;69.50
76168;DHT22;64927;48.214;16.378;2023-12-20T03:04:32;3.90;69.80
76168;DHT22;64927;48.214;16.378;2023-12-20T03:06:58;3.90;69.10
76168;DHT22;64927;48.214;16.378;2023-12-20T03:09:23;3.90;68.90
76168;DHT22;64927;48.214;16.378;2023-12-20T03:11:51;3.80;69.30
76168;DHT22;64927;48.214;16.378;2023-12-20T03:14:17;4.00;69.00
76168;DHT22;64927;48.214;16.378;2023-12-20T03:16:49;4.20;68.30
76168;DHT22;64927;48.214;16.378;2023-12-20T03:19:15;4.20;68.20
76168;DHT22;64927;48.214;16.378;2023-12-20T03:21:41;4.30;67.60
76168;DHT22;64927;48.214;16.378;2023-12-20T03:24:07;4.10;67.10
76168;DHT22;64927;48.214;16.378;2023-12-20T03:26:32;4.00;67.50
76168;DHT22;64927;48.214;16.378;2023-12-20T03:29:01;4.00;67.90
76168;DHT22;64927;48.214;16.378;2023-12-20T03:31:26;4.10;67.90
76168;DHT22;64927;48.214;16.378;2023-12-20T03:33:54;4.10;67.40
76168;DHT22;64927;48.214;16.378;2023-12-20T03:36:20;3.70;68.10
76168;DHT22;64927;48.214;16.378;2023-12-20T03:38:46;3.70;68.80
76168;DHT22;64927;48.214;16.378;2023-12-20T03:41:11;3.80;69.10
76168;DHT22;64927;48.214;16.378;2023-12-20T03:43:37;3.60;69.20
76168;DHT22;64927;48.214;16.378;2023-12-20T03:46:03;3.50;69.50
76168;DHT22;64927;48.214;16.378;2023-12-20T03:48:30;3.60;69.70
76168;DHT22;64927;48.214;16.378;2023-12-20T03:50:57;3.60;69.80
76168;DHT22;64927;48.214;16.378;2023-12-20T03:53:22;3.70;69.60
76168;DHT22;64927;48.214;16.378;2023-12-20T03:55:48;3.80;69.50
76168;DHT22;64927;48.214;16.378;2023-12-20T03:58:13;3.80;68.70
76168;DHT22;64927;48.214;16.378;2023-12-20T04:00:39;3.40;67.30
76168;DHT22;64927;48.214;16.378;2023-12-20T04:03:05;2.80;69.10
76168;DHT22;64927;48.214;16.378;2023-12-20T04:05:30;2.60;70.40
76168;DHT22;64927;48.214;16.378;2023-12-20T04:08:01;2.40;71.10
76168;DHT22;64927;48.214;16.378;2023-12-20T04:10:26;2.30;71.90
76168;DHT22;64927;48.214;16.378;2023-12-20T04:12:53;2.40;71.90
76168;DHT22;64927;48.214;16.378;2023-12-20T04:15:21;2.20;72.40
76168;DHT22;64927;48.214;16.378;2023-12-20T04:17:47;2.10;72.80
76168;DHT22;64927;48.214;16.378;2023-12-20T04:20:12;2.00;73.40
76168;DHT22;64927;48.214;16.378;2023-12-20T04:22:38;2.00;73.70
76168;DHT22;64927;48.214;16.378;2023-12-20T04:25:04;2.00;73.80
76168;DHT22;64927;48.214;16.378;2023-12-20T04:27:29;2.00;73.90
76168;DHT22;64927;48.214;16.378;2023-12-20T04:29:55;2.00;73.80
76168;DHT22;64927;48.214;16.378;2023-12-20T04:32:23;2.10;72.90
76168;DHT22;64927;48.214;16.378;2023-12-20T04:34:48;2.00;73.50
76168;DHT22;64927;48.214;16.378;2023-12-20T04:37:14;1.90;73.80
76168;DHT22;64927;48.214;16.378;2023-12-20T04:39:40;1.90;74.40
76168;DHT22;64927;48.214;16.378;2023-12-20T04:42:07;2.10;74.20
76168;DHT22;64927;48.214;16.378;2023-12-20T04:44:33;2.10;74.00
76168;DHT22;64927;48.214;16.378;2023-12-20T04:47:02;2.30;74.50
76168;DHT22;64927;48.214;16.378;2023-12-20T04:49:27;2.40;73.30
76168;DHT22;64927;48.214;16.378;2023-12-20T04:51:53;2.60;72.50
76168;DHT22;64927;48.214;16.378;2023-12-20T04:54:18;2.70;71.90
76168;DHT22;64927;48.214;16.378;2023-12-20T04:56:44;2.70;71.40
76168;DHT22;64927;48.214;16.378;2023-12-20T04:59:10;2.90;70.30
76168;DHT22;64927;48.214;16.378;2023-12-20T05:01:38;2.90;70.10
76168;DHT22;64927;48.214;16.378;2023-12-20T05:04:04;3.10;70.90
76168;DHT22;64927;48.214;16.378;2023-12-20T05:06:29;3.30;69.70
76168;DHT22;64927;48.214;16.378;2023-12-20T05:08:55;3.40;69.70
76168;DHT22;64927;48.214;16.378;2023-12-20T05:11:21;3.50;69.50
76168;DHT22;64927;48.214;16.378;2023-12-20T05:13:46;3.60;68.80
76168;DHT22;64927;48.214;16.378;2023-12-20T05:16:12;3.60;68.70
76168;DHT22;64927;48.214;16.378;2023-12-20T05:18:39;3.70;69.00
76168;DHT22;64927;48.214;16.378;2023-12-20T05:21:09;3.80;68.50
76168;DHT22;64927;48.214;16.378;2023-12-20T05:23:35;3.90;68.70
76168;DHT22;64927;48.214;16.378;2023-12-20T05:26:01;4.00;68.60
76168;DHT22;64927;48.214;16.378;2023-12-20T05:28:28;4.20;70.50
76168;DHT22;64927;48.214;16.378;2023-12-20T05:30:54;4.60;71.00
76168;DHT22;64927;48.214;16.378;2023-12-20T05:33:22;5.00;70.50
76168;DHT22;64927;48.214;16.378;2023-12-20T05:35:47;5.30;69.80
76168;DHT22;64927;48.214;16.378;2023-12-20T05:38:13;5.70;70.20
76168;DHT22;64927;48.214;16.378;2023-12-20T05:40:39;6.00;69.80
76168;DHT22;64927;48.214;16.378;2023-12-20T05:43:04;6.30;69.60
76168;DHT22;64927;48.214;16.378;2023-12-20T05:45:30;6.90;68.80
76168;DHT22;64927;48.214;16.378;2023-12-20T05:47:55;7.30;67.30
76168;DHT22;64927;48.214;16.378;2023-12-20T05:50:21;7.60;66.40
76168;DHT22;64927;48.214;16.378;2023-12-20T05:52:46;8.00;65.40
76168;DHT22;64927;48.214;16.378;2023-12-20T05:55:12;8.20;64.40
76168;DHT22;64927;48.214;16.378;2023-12-20T05:57:38;8.50;64.00
76168;DHT22;64927;48.214;16.378;2023-12-20T06:00:04;8.60;63.40
76168;DHT22;64927;48.214;16.378;2023-12-20T06:02:32;8.70;63.20
76168;DHT22;64927;48.214;16.378;2023-12-20T06:04:58;8.90;62.60
76168;DHT22;64927;48.214;16.378;2023-12-20T06:07:23;9.10;62.10
76168;DHT22;64927;48.214;16.378;2023-12-20T06:09:49;9.10;61.40
76168;DHT22;64927;48.214;16.378;2023-12-20T06:12:15;9.20;61.70
76168;DHT22;64927;48.214;16.378;2023-12-20T06:14:40;9.30;61.50
76168;DHT22;64927;48.214;16.378;2023-12-20T06:17:08;9.30;61.50
76168;DHT22;64927;48.214;16.378;2023-12-20T06:19:34;9.40;61.10
76168;DHT22;64927;48.214;16.378;2023-12-20T06:22:00;9.60;60.60
76168;DHT22;64927;48.214;16.378;2023-12-20T06:24:27;9.70;60.20
76168;DHT22;64927;48.214;16.378;2023-12-20T06:26:54;9.70;59.60
76168;DHT22;64927;48.214;16.378;2023-12-20T06:29:20;9.80;60.20
76168;DHT22;64927;48.214;16.378;2023-12-20T06:31:48;9.80;60.00
76168;DHT22;64927;48.214;16.378;2023-12-20T06:34:14;9.80;59.60
76168;DHT22;64927;48.214;16.378;2023-12-20T06:36:39;9.80;59.50
76168;DHT22;64927;48.214;16.378;2023-12-20T06:39:05;9.80;59.50
76168;DHT22;64927;48.214;16.378;2023-12-20T06:41:31;9.80;60.00
76168;DHT22;64927;48.214;16.378;2023-12-20T06:43:56;9.80;59.20
76168;DHT22;64927;48.214;16.378;2023-12-20T06:46:22;9.80;58.50
76168;DHT22;64927;48.214;16.378;2023-12-20T06:48:47;9.80;58.70
76168;DHT22;64927;48.214;16.378;2023-12-20T06:51:15;9.90;57.70
76168;DHT22;64927;48.214;16.378;2023-12-20T06:53:42;9.90;58.00
76168;DHT22;64927;48.214;16.378;2023-12-20T06:56:07;10.00;58.00
76168;DHT22;64927;48.214;16.378;2023-12-20T06:58:34;10.10;57.90
76168;DHT22;64927;48.214;16.378;2023-12-20T07:00:59;10.10;59.30
76168;DHT22;64927;48.214;16.378;2023-12-20T07:03:27;10.20;58.50
76168;DHT22;64927;48.214;16.378;2023-12-20T07:05:53;10.50;59.60
76168;DHT22;64927;48.214;16.378;2023-12-20T07:08:19;10.70;58.10
76168;DHT22;64927;48.214;16.378;2023-12-20T07:10:44;10.80;56.20
76168;DHT22;64927;48.214;16.378;2023-12-20T07:13:12;10.90;56.80
76168;DHT22;64927;48.214;16.378;2023-12-20T07:15:38;11.00;57.40
76168;DHT22;64927;48.214;16.378;2023-12-20T07:18:04;11.10;55.10
76168;DHT22;64927;48.214;16.378;2023-12-20T07:20:30;11.00;54.40
76168;DHT22;64927;48.214;16.378;2023-12-20T07:22:59;10.80;53.80
76168;DHT22;64927;48.214;16.378;2023-12-20T07:25:25;10.80;54.20
76168;DHT22;64927;48.214;16.378;2023-12-20T07:27:50;10.70;55.10
76168;DHT22;64927;48.214;16.378;2023-12-20T07:30:16;10.60;55.40
76168;DHT22;64927;48.214;16.378;2023-12-20T07:32:42;10.50;56.60
76168;DHT22;64927;48.214;16.378;2023-12-20T07:35:07;10.30;60.30
76168;DHT22;64927;48.214;16.378;2023-12-20T07:37:35;10.10;60.90
76168;DHT22;64927;48.214;16.378;2023-12-20T07:40:04;9.90;62.50
76168;DHT22;64927;48.214;16.378;2023-12-20T07:42:32;9.80;64.20
76168;DHT22;64927;48.214;16.378;2023-12-20T07:44:58;9.70;64.00
76168;DHT22;64927;48.214;16.378;2023-12-20T07:47:24;9.60;65.20
76168;DHT22;64927;48.214;16.378;2023-12-20T07:49:51;9.50;65.80
76168;DHT22;64927;48.214;16.378;2023-12-20T07:52:19;9.50;65.90
76168;DHT22;64927;48.214;16.378;2023-12-20T07:54:45;9.50;65.30
76168;DHT22;64927;48.214;16.378;2023-12-20T07:57:12;9.40;64.10
76168;DHT22;64927;48.214;16.378;2023-12-20T07:59:37;9.40;64.60
76168;DHT22;64927;48.214;16.378;2023-12-20T08:02:06;9.30;65.90
76168;DHT22;64927;48.214;16.378;2023-12-20T08:04:33;9.20;65.80
76168;DHT22;64927;48.214;16.378;2023-12-20T08:06:59;9.20;66.00
76168;DHT22;64927;48.214;16.378;2023-12-20T08:09:25;9.30;66.20
76168;DHT22;64927;48.214;16.378;2023-12-20T08:11:54;9.30;66.30
76168;DHT22;64927;48.214;16.378;2023-12-20T08:14:21;9.40;65.70
76168;DHT22;64927;48.214;16.378;2023-12-20T08:16:46;9.40;65.70
76168;DHT22;64927;48.214;16.378;2023-12-20T08:19:15;9.50;64.30
76168;DHT22;64927;48.214;16.378;2023-12-20T08:21:40;9.50;64.00
76168;DHT22;64927;48.214;16.378;2023-12-20T08:24:06;9.60;63.60
76168;DHT22;64927;48.214;16.378;2023-12-20T08:26:33;9.70;62.80
76168;DHT22;64927;48.214;16.378;2023-12-20T08:28:58;9.60;62.70
76168;DHT22;64927;48.214;16.378;2023-12-20T08:31:24;9.60;62.80
76168;DHT22;64927;48.214;16.378;2023-12-20T08:33:50;9.60;62.70
76168;DHT22;64927;48.214;16.378;2023-12-20T08:36:19;9.60;62.20
76168;DHT22;64927;48.214;16.378;2023-12-20T08:38:47;9.70;62.10
76168;DHT22;64927;48.214;16.378;2023-12-20T08:41:12;9.70;61.70
76168;DHT22;64927;48.214;16.378;2023-12-20T08:43:43;9.80;61.70
76168;DHT22;64927;48.214;16.378;2023-12-20T08:46:09;9.70;61.20
76168;DHT22;64927;48.214;16.378;2023-12-20T08:48:38;9.60;61.20
76168;DHT22;64927;48.214;16.378;2023-12-20T08:51:04;9.60;61.30
76168;DHT22;64927;48.214;16.378;2023-12-20T08:53:32;9.70;61.40
76168;DHT22;64927;48.214;16.378;2023-12-20T08:55:58;9.70;60.90
76168;DHT22;64927;48.214;16.378;2023-12-20T08:58:27;9.60;61.30
76168;DHT22;64927;48.214;16.378;2023-12-20T09:00:52;9.60;61.10
76168;DHT22;64927;48.214;16.378;2023-12-20T09:03:18;9.70;60.70
76168;DHT22;64927;48.214;16.378;2023-12-20T09:05:44;9.60;60.90
76168;DHT22;64927;48.214;16.378;2023-12-20T09:08:09;9.70;61.40
76168;DHT22;64927;48.214;16.378;2023-12-20T09:10:36;9.70;61.10
76168;DHT22;64927;48.214;16.378;2023-12-20T09:13:05;9.60;61.00
76168;DHT22;64927;48.214;16.378;2023-12-20T09:15:30;9.60;61.70
76168;DHT22;64927;48.214;16.378;2023-12-20T09:17:56;9.60;61.80
76168;DHT22;64927;48.214;16.378;2023-12-20T09:20:22;9.50;62.30
76168;DHT22;64927;48.214;16.378;2023-12-20T09:22:52;9.50;63.20
76168;DHT22;64927;48.214;16.378;2023-12-20T09:25:22;9.50;64.50
76168;DHT22;64927;48.214;16.378;2023-12-20T09:27:51;9.40;64.70
76168;DHT22;64927;48.214;16.378;2023-12-20T09:30:17;9.30;65.60
76168;DHT22;64927;48.214;16.378;2023-12-20T09:32:45;9.10;66.50
76168;DHT22;64927;48.214;16.378;2023-12-20T09:35:11;9.00;67.60
76168;DHT22;64927;48.214;16.378;2023-12-20T09:37:37;9.00;66.50
76168;DHT22;64927;48.214;16.378;2023-12-20T09:40:07;8.90;67.30
76168;DHT22;64927;48.214;16.378;2023-12-20T09:42:57;8.70;67.60
76168;DHT22;64927;48.214;16.378;2023-12-20T09:45:23;8.70;68.80
76168;DHT22;64927;48.214;16.378;2023-12-20T09:47:53;8.70;68.90
76168;DHT22;64927;48.214;16.378;2023-12-20T09:50:22;8.60;69.80
76168;DHT22;64927;48.214;16.378;2023-12-20T09:52:50;8.50;69.70
76168;DHT22;64927;48.214;16.378;2023-12-20T09:55:22;8.50;69.70
76168;DHT22;64927;48.214;16.378;2023-12-20T09:57:53;8.40;70.60
76168;DHT22;64927;48.214;16.378;2023-12-20T10:00:19;8.30;71.00
76168;DHT22;64927;48.214;16.378;2023-12-20T10:02:54;8.30;70.60
76168;DHT22;64927;48.214;16.378;2023-12-20T10:05:29;8.40;71.50
76168;DHT22;64927;48.214;16.378;2023-12-20T10:07:55;8.30;71.10
76168;DHT22;64927;48.214;16.378;2023-12-20T10:10:21;8.30;71.30
76168;DHT22;64927;48.214;16.378;2023-12-20T10:13:07;8.30;71.40
76168;DHT22;64927;48.214;16.378;2023-12-20T10:15:36;8.30;71.20
76168;DHT22;64927;48.214;16.378;2023-12-20T10:18:02;8.30;71.10
76168;DHT22;64927;48.214;16.378;2023-12-20T10:20:29;8.30;72.00
76168;DHT22;64927;48.214;16.378;2023-12-20T10:22:56;8.30;71.30
76168;DHT22;64927;48.214;16.378;2023-12-20T10:25:22;8.30;71.40
76168;DHT22;64927;48.214;16.378;2023-12-20T10:27:49;8.30;70.80
76168;DHT22;64927;48.214;16.378;2023-12-20T10:30:15;8.40;70.20
76168;DHT22;64927;48.214;16.378;2023-12-20T10:32:40;8.40;70.00
76168;DHT22;64927;48.214;16.378;2023-12-20T10:35:06;8.50;69.80
76168;DHT22;64927;48.214;16.378;2023-12-20T10:37:41;8.50;69.70
76168;DHT22;64927;48.214;16.378;2023-12-20T10:40:08;8.60;69.40
76168;DHT22;64927;48.214;16.378;2023-12-20T10:42:36;8.60;69.50
76168;DHT22;64927;48.214;16.378;2023-12-20T10:45:03;8.60;69.30
76168;DHT22;64927;48.214;16.378;2023-12-20T10:47:30;8.60;68.50
76168;DHT22;64927;48.214;16.378;2023-12-20T10:49:59;8.60;68.80
76168;DHT22;64927;48.214;16.378;2023-12-20T10:52:27;8.60;68.50
76168;DHT22;64927;48.214;16.378;2023-12-20T10:54:56;8.60;68.90
76168;DHT22;64927;48.214;16.378;2023-12-20T10:57:23;8.70;68.50
76168;DHT22;64927;48.214;16.378;2023-12-20T10:59:53;8.70;68.10
76168;DHT22;64927;48.214;16.378;2023-12-20T11:02:19;8.70;68.40
76168;DHT22;64927;48.214;16.378;2023-12-20T11:04:57;8.80;68.30
76168;DHT22;64927;48.214;16.378;2023-12-20T11:07:35;8.70;67.60
76168;DHT22;64927;48.214;16.378;2023-12-20T11:10:13;8.80;68.00
76168;DHT22;64927;48.214;16.378;2023-12-20T11:12:48;8.80;68.10
76168;DHT22;64927;48.214;16.378;2023-12-20T11:15:16;8.90;68.20
76168;DHT22;64927;48.214;16.378;2023-12-20T11:17:47;8.80;67.70
76168;DHT22;64927;48.214;16.378;2023-12-20T11:20:23;8.90;68.00
76168;DHT22;64927;48.214;16.378;2023-12-20T11:22:53;9.00;67.50
76168;DHT22;64927;48.214;16.378;2023-12-20T11:25:19;9.00;67.10
76168;DHT22;64927;48.214;16.378;2023-12-20T11:28:11;9.00;67.10
76168;DHT22;64927;48.214;16.378;2023-12-20T11:30:47;9.00;67.40
76168;DHT22;64927;48.214;16.378;2023-12-20T11:33:13;9.00;67.00
76168;DHT22;64927;48.214;16.378;2023-12-20T11:35:39;9.00;67.40
76168;DHT22;64927;48.214;16.378;2023-12-20T11:38:08;9.00;67.20
76168;DHT22;64927;48.214;16.378;2023-12-20T11:40:35;9.00;67.60
76168;DHT22;64927;48.214;16.378;2023-12-20T11:43:00;9.00;66.90
76168;DHT22;64927;48.214;16.378;2023-12-20T11:45:26;9.00;66.90
76168;DHT22;64927;48.214;16.378;2023-12-20T11:47:52;9.10;66.90
76168;DHT22;64927;48.214;16.378;2023-12-20T11:50:22;9.10;67.60
76168;DHT22;64927;48.214;16.378;2023-12-20T11:52:49;9.10;67.10
76168;DHT22;64927;48.214;16.378;2023-12-20T11:55:15;9.10;67.00
76168;DHT22;64927;48.214;16.378;2023-12-20T11:57:43;9.20;66.40
76168;DHT22;64927;48.214;16.378;2023-12-20T12:00:10;9.30;66.70
76168;DHT22;64927;48.214;16.378;2023-12-20T12:02:38;9.30;66.20
76168;DHT22;64927;48.214;16.378;2023-12-20T12:05:06;9.40;66.00
76168;DHT22;64927;48.214;16.378;2023-12-20T12:07:33;9.40;66.40
76168;DHT22;64927;48.214;16.378;2023-12-20T12:09:59;9.40;65.80
76168;DHT22;64927;48.214;16.378;2023-12-20T12:12:25;9.50;65.30
76168;DHT22;64927;48.214;16.378;2023-12-20T12:14:55;9.50;64.70
76168;DHT22;64927;48.214;16.378;2023-12-20T12:17:25;9.60;64.60
76168;DHT22;64927;48.214;16.378;2023-12-20T12:19:51;9.70;64.70
76168;DHT22;64927;48.214;16.378;2023-12-20T12:22:26;9.70;64.30
76168;DHT22;64927;48.214;16.378;2023-12-20T12:24:53;9.80;64.70
76168;DHT22;64927;48.214;16.378;2023-12-20T12:27:19;9.80;64.40
76168;DHT22;64927;48.214;16.378;2023-12-20T12:30:04;9.90;63.60
76168;DHT22;64927;48.214;16.378;2023-12-20T12:32:32;9.90;63.30
76168;DHT22;64927;48.214;16.378;2023-12-20T12:34:58;9.90;63.40
76168;DHT22;64927;48.214;16.378;2023-12-20T12:37:23;9.90;64.20
76168;DHT22;64927;48.214;16.378;2023-12-20T12:39:50;10.00;65.00
76168;DHT22;64927;48.214;16.378;2023-12-20T12:42:15;10.10;63.60
76168;DHT22;64927;48.214;16.378;2023-12-20T12:44:41;10.00;63.20
76168;DHT22;64927;48.214;16.378;2023-12-20T12:47:06;9.90;63.60
76168;DHT22;64927;48.214;16.378;2023-12-20T12:49:33;9.90;63.60
76168;DHT22;64927;48.214;16.378;2023-12-20T12:51:59;9.80;63.50
76168;DHT22;64927;48.214;16.378;2023-12-20T12:54:25;9.70;64.40
76168;DHT22;64927;48.214;16.378;2023-12-20T12:56:53;9.70;64.20
76168;DHT22;64927;48.214;16.378;2023-12-20T12:59:21;9.70;63.50
76168;DHT22;64927;48.214;16.378;2023-12-20T13:01:47;9.80;64.00
76168;DHT22;64927;48.214;16.378;2023-12-20T13:04:13;9.80;63.40
76168;DHT22;64927;48.214;16.378;2023-12-20T13:06:39;9.90;63.70
76168;DHT22;64927;48.214;16.378;2023-12-20T13:09:06;10.00;63.40
76168;DHT22;64927;48.214;16.378;2023-12-20T13:11:35;10.00;63.20
76168;DHT22;64927;48.214;16.378;2023-12-20T13:14:00;10.00;63.00
76168;DHT22;64927;48.214;16.378;2023-12-20T13:16:26;10.00;63.10
76168;DHT22;64927;48.214;16.378;2023-12-20T13:18:52;10.10;62.70
76168;DHT22;64927;48.214;16.378;2023-12-20T13:21:18;10.10;62.90
76168;DHT22;64927;48.214;16.378;2023-12-20T13:23:43;10.10;62.50
76168;DHT22;64927;48.214;16.378;2023-12-20T13:26:11;10.00;62.60
76168;DHT22;64927;48.214;16.378;2023-12-20T13:28:39;9.90;62.80
76168;DHT22;64927;48.214;16.378;2023-12-20T13:31:05;9.90;62.70
76168;DHT22;64927;48.214;16.378;2023-12-20T13:33:30;9.80;62.90
76168;DHT22;64927;48.214;16.378;2023-12-20T13:35:58;9.80;63.30
76168;DHT22;64927;48.214;16.378;2023-12-20T13:38:26;9.80;63.20
76168;DHT22;64927;48.214;16.378;2023-12-20T13:40:54;9.80;63.10
76168;DHT22;64927;48.214;16.378;2023-12-20T13:43:20;9.80;63.00
76168;DHT22;64927;48.214;16.378;2023-12-20T13:45:50;9.80;63.30
76168;DHT22;64927;48.214;16.378;2023-12-20T13:48:16;9.60;63.60
76168;DHT22;64927;48.214;16.378;2023-12-20T13:50:44;9.60;64.00
76168;DHT22;64927;48.214;16.378;2023-12-20T13:53:09;9.50;64.10
76168;DHT22;64927;48.214;16.378;2023-12-20T13:55:35;9.50;64.80
76168;DHT22;64927;48.214;16.378;2023-12-20T13:58:00;9.50;64.70
76168;DHT22;64927;48.214;16.378;2023-12-20T14:00:26;9.50;64.70
76168;DHT22;64927;48.214;16.378;2023-12-20T14:02:52;9.50;64.40
76168;DHT22;64927;48.214;16.378;2023-12-20T14:05:19;9.50;64.50
76168;DHT22;64927;48.214;16.378;2023-12-20T14:07:48;9.50;64.70
76168;DHT22;64927;48.214;16.378;2023-12-20T14:10:16;9.30;65.20
76168;DHT22;64927;48.214;16.378;2023-12-20T14:12:42;9.20;65.50
76168;DHT22;64927;48.214;16.378;2023-12-20T14:15:09;9.30;65.70
76168;DHT22;64927;48.214;16.378;2023-12-20T14:17:42;9.20;65.30
76168;DHT22;64927;48.214;16.378;2023-12-20T14:20:10;9.30;65.40
76168;DHT22;64927;48.214;16.378;2023-12-20T14:22:38;9.20;65.70
76168;DHT22;64927;48.214;16.378;2023-12-20T14:25:11;9.20;65.70
76168;DHT22;64927;48.214;16.378;2023-12-20T14:27:37;9.20;65.80
76168;DHT22;64927;48.214;16.378;2023-12-20T14:30:04;9.20;65.70
76168;DHT22;64927;48.214;16.378;2023-12-20T14:32:34;9.20;65.70
76168;DHT22;64927;48.214;16.378;2023-12-20T14:35:06;9.00;65.60
76168;DHT22;64927;48.214;16.378;2023-12-20T14:37:32;9.00;65.90
76168;DHT22;64927;48.214;16.378;2023-12-20T14:39:57;9.10;65.90
76168;DHT22;64927;48.214;16.378;2023-12-20T14:42:23;9.00;65.80
76168;DHT22;64927;48.214;16.378;2023-12-20T14:44:49;9.00;65.70
76168;DHT22;64927;48.214;16.378;2023-12-20T14:47:14;9.20;65.60
76168;DHT22;64927;48.214;16.378;2023-12-20T14:49:41;9.30;65.30
76168;DHT22;64927;48.214;16.378;2023-12-20T14:52:06;9.20;65.40
76168;DHT22;64927;48.214;16.378;2023-12-20T14:54:32;9.10;66.00
76168;DHT22;64927;48.214;16.378;2023-12-20T14:56:59;9.00;65.70
76168;DHT22;64927;48.214;16.378;2023-12-20T14:59:24;9.10;65.90
76168;DHT22;64927;48.214;16.378;2023-12-20T15:01:55;9.10;66.20
76168;DHT22;64927;48.214;16.378;2023-12-20T15:04:21;9.10;66.00
76168;DHT22;64927;48.214;16.378;2023-12-20T15:06:54;9.10;66.40
76168;DHT22;64927;48.214;16.378;2023-12-20T15:09:20;9.10;66.50
76168;DHT22;64927;48.214;16.378;2023-12-20T15:11:46;9.00;66.50
76168;DHT22;64927;48.214;16.378;2023-12-20T15:14:12;9.00;66.70
76168;DHT22;64927;48.214;16.378;2023-12-20T15:16:44;9.00;66.90
76168;DHT22;64927;48.214;16.378;2023-12-20T15:19:10;9.00;66.80
76168;DHT22;64927;48.214;16.378;2023-12-20T15:21:36;8.90;67.10
76168;DHT22;64927;48.214;16.378;2023-12-20T15:24:06;8.90;66.80
76168;DHT22;64927;48.214;16.378;2023-12-20T15:26:38;9.00;66.40
76168;DHT22;64927;48.214;16.378;2023-12-20T15:29:04;9.00;66.50